sensor_id;sensor_type;location;lat;lon;timestamp;P1;durP1;ratioP1;P2;durP2;ratioP2
13445;SDS011;6795;51.232;3.764;2024-03-02T00:00:15;1.67;;;0.63;;
13445;SDS011;6795;51.232;3.764;2024-03-02T00:03:29;1.63;;;0.28;;
13445;SDS011;6795;51.232;3.764;2024-03-02T00:06:29;0.85;;;0.28;;
13445;SDS011;6795;51.232;3.764;2024-03-02T00:09:46;2.80;;;0.20;;
13445;SDS011;6795;51.232;3.764;2024-03-02T00:13:14;2.08;;;0.20;;
13445;SDS011;6795;51.232;3.764;2024-03-02T00:16:21;1.02;;;0.20;;
13445;SDS011;6795;51.232;3.764;2024-03-02T00:19:39;0.70;;;0.13;;
13445;SDS011;6795;51.232;3.764;2024-03-02T00:23:15;0.15;;;0.15;;
13445;SDS011;6795;51.232;3.764;2024-03-02T00:30:12;1.73;;;0.23;;
13445;SDS011;6795;51.232;3.764;2024-03-02T00:33:30;0.47;;;0.20;;
13445;SDS011;6795;51.232;3.764;2024-03-02T00:40:24;0.50;;;0.32;;
13445;SDS011;6795;51.232;3.764;2024-03-02T00:46:35;1.13;;;0.30;;
13445;SDS011;6795;51.232;3.764;2024-03-02T00:53:26;0.40;;;0.33;;
13445;SDS011;6795;51.232;3.764;2024-03-02T00:59:41;0.70;;;0.40;;
13445;SDS011;6795;51.232;3.764;2024-03-02T01:03:31;1.35;;;0.38;;
13445;SDS011;6795;51.232;3.764;2024-03-02T01:07:29;0.45;;;0.40;;
13445;SDS011;6795;51.232;3.764;2024-03-02T01:14:04;1.05;;;0.40;;
13445;SDS011;6795;51.232;3.764;2024-03-02T01:17:00;0.82;;;0.30;;
13445;SDS011;6795;51.232;3.764;2024-03-02T01:20:05;0.40;;;0.40;;
13445;SDS011;6795;51.232;3.764;2024-03-02T01:23:22;1.52;;;0.50;;
13445;SDS011;6795;51.232;3.764;2024-03-02T01:27:02;1.58;;;0.82;;
13445;SDS011;6795;51.232;3.764;2024-03-02T01:30:13;0.88;;;0.50;;
13445;SDS011;6795;51.232;3.764;2024-03-02T01:33:34;0.60;;;0.40;;
13445;SDS011;6795;51.232;3.764;2024-03-02T01:38:49;1.37;;;0.47;;
13445;SDS011;6795;51.232;3.764;2024-03-02T01:40:09;0.57;;;0.50;;
13445;SDS011;6795;51.232;3.764;2024-03-02T01:43:16;0.90;;;0.50;;
13445;SDS011;6795;51.232;3.764;2024-03-02T01:46:43;0.57;;;0.50;;
13445;SDS011;6795;51.232;3.764;2024-03-02T01:49:45;1.08;;;0.30;;
13445;SDS011;6795;51.232;3.764;2024-03-02T01:53:02;1.60;;;0.37;;
13445;SDS011;6795;51.232;3.764;2024-03-02T01:59:33;2.15;;;0.45;;
13445;SDS011;6795;51.232;3.764;2024-03-02T02:02:39;1.88;;;0.47;;
13445;SDS011;6795;51.232;3.764;2024-03-02T02:05:56;0.70;;;0.30;;
13445;SDS011;6795;51.232;3.764;2024-03-02T02:08:51;1.27;;;0.50;;
13445;SDS011;6795;51.232;3.764;2024-03-02T02:12:47;2.17;;;0.50;;
13445;SDS011;6795;51.232;3.764;2024-03-02T02:16:05;1.73;;;0.45;;
13445;SDS011;6795;51.232;3.764;2024-03-02T02:22:40;1.95;;;0.60;;
13445;SDS011;6795;51.232;3.764;2024-03-02T02:25:33;1.13;;;0.50;;
13445;SDS011;6795;51.232;3.764;2024-03-02T02:31:50;1.15;;;0.65;;
13445;SDS011;6795;51.232;3.764;2024-03-02T02:34:55;3.22;;;1.02;;
13445;SDS011;6795;51.232;3.764;2024-03-02T02:38:12;4.70;;;1.07;;
13445;SDS011;6795;51.232;3.764;2024-03-02T02:41:08;3.53;;;1.20;;
13445;SDS011;6795;51.232;3.764;2024-03-02T02:44:20;3.47;;;1.10;;
13445;SDS011;6795;51.232;3.764;2024-03-02T02:47:35;4.43;;;1.20;;
13445;SDS011;6795;51.232;3.764;2024-03-02T02:50:48;2.33;;;1.00;;
13445;SDS011;6795;51.232;3.764;2024-03-02T02:54:16;3.63;;;1.23;;
13445;SDS011;6795;51.232;3.764;2024-03-02T02:57:35;2.77;;;1.20;;
13445;SDS011;6795;51.232;3.764;2024-03-02T03:01:08;3.65;;;0.95;;
13445;SDS011;6795;51.232;3.764;2024-03-02T03:04:08;2.75;;;1.52;;
13445;SDS011;6795;51.232;3.764;2024-03-02T03:07:18;6.13;;;1.38;;
13445;SDS011;6795;51.232;3.764;2024-03-02T03:18:09;4.90;;;1.60;;
13445;SDS011;6795;51.232;3.764;2024-03-02T03:21:43;3.07;;;0.93;;
13445;SDS011;6795;51.232;3.764;2024-03-02T03:24:37;2.53;;;1.00;;
13445;SDS011;6795;51.232;3.764;2024-03-02T03:27:56;1.37;;;0.90;;
13445;SDS011;6795;51.232;3.764;2024-03-02T03:35:13;4.82;;;1.02;;
13445;SDS011;6795;51.232;3.764;2024-03-02T03:38:49;3.70;;;0.95;;
13445;SDS011;6795;51.232;3.764;2024-03-02T03:45:17;4.20;;;1.10;;
13445;SDS011;6795;51.232;3.764;2024-03-02T03:48:12;4.03;;;1.20;;
13445;SDS011;6795;51.232;3.764;2024-03-02T03:51:38;4.40;;;1.40;;
13445;SDS011;6795;51.232;3.764;2024-03-02T03:54:31;3.58;;;1.17;;
13445;SDS011;6795;51.232;3.764;2024-03-02T03:57:31;4.97;;;2.00;;
13445;SDS011;6795;51.232;3.764;2024-03-02T04:00:47;3.75;;;1.60;;
13445;SDS011;6795;51.232;3.764;2024-03-02T04:04:21;6.40;;;1.63;;
13445;SDS011;6795;51.232;3.764;2024-03-02T04:22:08;2.50;;;1.90;;
13445;SDS011;6795;51.232;3.764;2024-03-02T04:25:21;3.53;;;1.40;;
13445;SDS011;6795;51.232;3.764;2024-03-02T04:28:20;4.20;;;1.20;;
13445;SDS011;6795;51.232;3.764;2024-03-02T04:31:34;3.70;;;1.20;;
13445;SDS011;6795;51.232;3.764;2024-03-02T04:34:32;3.20;;;1.15;;
13445;SDS011;6795;51.232;3.764;2024-03-02T04:45:03;3.73;;;0.70;;
13445;SDS011;6795;51.232;3.764;2024-03-02T04:48:03;3.22;;;0.50;;
13445;SDS011;6795;51.232;3.764;2024-03-02T04:51:04;2.72;;;0.50;;
13445;SDS011;6795;51.232;3.764;2024-03-02T04:54:24;3.10;;;0.60;;
13445;SDS011;6795;51.232;3.764;2024-03-02T04:57:54;7.00;;;0.80;;
13445;SDS011;6795;51.232;3.764;2024-03-02T05:01:00;1.07;;;0.60;;
13445;SDS011;6795;51.232;3.764;2024-03-02T05:04:23;5.27;;;0.50;;
13445;SDS011;6795;51.232;3.764;2024-03-02T05:07:59;4.83;;;0.83;;
13445;SDS011;6795;51.232;3.764;2024-03-02T05:11:08;3.28;;;0.52;;
13445;SDS011;6795;51.232;3.764;2024-03-02T05:14:45;5.22;;;1.27;;
13445;SDS011;6795;51.232;3.764;2024-03-02T05:18:04;4.70;;;0.60;;
13445;SDS011;6795;51.232;3.764;2024-03-02T05:21:24;2.37;;;0.50;;
13445;SDS011;6795;51.232;3.764;2024-03-02T05:24:50;5.27;;;0.60;;
13445;SDS011;6795;51.232;3.764;2024-03-02T05:28:25;3.20;;;0.50;;
13445;SDS011;6795;51.232;3.764;2024-03-02T05:31:31;4.10;;;0.60;;
13445;SDS011;6795;51.232;3.764;2024-03-02T05:49:51;4.97;;;1.48;;
13445;SDS011;6795;51.232;3.764;2024-03-02T05:53:14;3.80;;;1.40;;
13445;SDS011;6795;51.232;3.764;2024-03-02T05:56:15;3.67;;;1.00;;
13445;SDS011;6795;51.232;3.764;2024-03-02T05:59:13;5.80;;;1.53;;
13445;SDS011;6795;51.232;3.764;2024-03-02T06:02:29;7.87;;;1.77;;
13445;SDS011;6795;51.232;3.764;2024-03-02T06:23:22;3.33;;;0.70;;
13445;SDS011;6795;51.232;3.764;2024-03-02T06:27:28;3.22;;;0.70;;
13445;SDS011;6795;51.232;3.764;2024-03-02T06:30:24;3.10;;;0.90;;
13445;SDS011;6795;51.232;3.764;2024-03-02T06:33:42;6.90;;;1.27;;
13445;SDS011;6795;51.232;3.764;2024-03-02T06:37:32;4.10;;;1.13;;
13445;SDS011;6795;51.232;3.764;2024-03-02T06:40:20;3.27;;;1.10;;
13445;SDS011;6795;51.232;3.764;2024-03-02T06:43:23;4.27;;;0.83;;
13445;SDS011;6795;51.232;3.764;2024-03-02T06:46:22;5.00;;;1.23;;
13445;SDS011;6795;51.232;3.764;2024-03-02T06:49:24;3.27;;;0.90;;
13445;SDS011;6795;51.232;3.764;2024-03-02T06:53:03;6.23;;;0.80;;
13445;SDS011;6795;51.232;3.764;2024-03-02T07:10:01;3.93;;;0.93;;
13445;SDS011;6795;51.232;3.764;2024-03-02T07:13:09;8.00;;;1.43;;
13445;SDS011;6795;51.232;3.764;2024-03-02T07:17:13;6.35;;;1.30;;
13445;SDS011;6795;51.232;3.764;2024-03-02T07:19:54;5.53;;;1.52;;
13445;SDS011;6795;51.232;3.764;2024-03-02T07:22:47;8.93;;;0.90;;
13445;SDS011;6795;51.232;3.764;2024-03-02T07:30:15;9.35;;;3.42;;
13445;SDS011;6795;51.232;3.764;2024-03-02T07:33:43;15.65;;;5.50;;
13445;SDS011;6795;51.232;3.764;2024-03-02T07:37:03;19.70;;;10.27;;
13445;SDS011;6795;51.232;3.764;2024-03-02T07:40:18;21.73;;;9.40;;
13445;SDS011;6795;51.232;3.764;2024-03-02T07:43:21;11.77;;;5.70;;
13445;SDS011;6795;51.232;3.764;2024-03-02T07:46:42;10.32;;;5.38;;
13445;SDS011;6795;51.232;3.764;2024-03-02T07:49:47;19.35;;;8.43;;
13445;SDS011;6795;51.232;3.764;2024-03-02T07:53:43;10.63;;;6.10;;
13445;SDS011;6795;51.232;3.764;2024-03-02T07:56:43;17.23;;;8.55;;
13445;SDS011;6795;51.232;3.764;2024-03-02T07:59:51;19.70;;;9.48;;
13445;SDS011;6795;51.232;3.764;2024-03-02T08:03:18;16.00;;;10.50;;
13445;SDS011;6795;51.232;3.764;2024-03-02T08:06:20;25.38;;;12.02;;
13445;SDS011;6795;51.232;3.764;2024-03-02T08:09:48;18.95;;;11.65;;
13445;SDS011;6795;51.232;3.764;2024-03-02T08:13:48;20.63;;;10.02;;
13445;SDS011;6795;51.232;3.764;2024-03-02T08:16:47;24.13;;;14.75;;
13445;SDS011;6795;51.232;3.764;2024-03-02T08:20:20;7.22;;;3.13;;
13445;SDS011;6795;51.232;3.764;2024-03-02T08:23:38;11.30;;;4.32;;
13445;SDS011;6795;51.232;3.764;2024-03-02T08:26:32;11.40;;;3.47;;
13445;SDS011;6795;51.232;3.764;2024-03-02T08:29:41;5.90;;;2.33;;
13445;SDS011;6795;51.232;3.764;2024-03-02T08:32:59;12.80;;;4.68;;
13445;SDS011;6795;51.232;3.764;2024-03-02T08:36:09;13.27;;;5.70;;
13445;SDS011;6795;51.232;3.764;2024-03-02T08:40:21;18.33;;;8.88;;
13445;SDS011;6795;51.232;3.764;2024-03-02T08:42:59;14.98;;;7.95;;
13445;SDS011;6795;51.232;3.764;2024-03-02T08:47:09;12.00;;;6.60;;
13445;SDS011;6795;51.232;3.764;2024-03-02T08:49:43;10.05;;;5.82;;
13445;SDS011;6795;51.232;3.764;2024-03-02T09:00:17;10.75;;;3.85;;
13445;SDS011;6795;51.232;3.764;2024-03-02T09:06:30;5.05;;;0.85;;
13445;SDS011;6795;51.232;3.764;2024-03-02T09:09:31;8.40;;;2.25;;
13445;SDS011;6795;51.232;3.764;2024-03-02T09:12:25;6.07;;;2.05;;
13445;SDS011;6795;51.232;3.764;2024-03-02T09:19:22;7.13;;;2.63;;
13445;SDS011;6795;51.232;3.764;2024-03-02T09:22:47;9.57;;;3.22;;
13445;SDS011;6795;51.232;3.764;2024-03-02T09:27:35;11.88;;;3.50;;
13445;SDS011;6795;51.232;3.764;2024-03-02T09:29:36;12.45;;;5.30;;
13445;SDS011;6795;51.232;3.764;2024-03-02T09:32:39;6.32;;;1.73;;
13445;SDS011;6795;51.232;3.764;2024-03-02T09:39:39;7.97;;;0.90;;
13445;SDS011;6795;51.232;3.764;2024-03-02T09:42:41;4.15;;;1.17;;
13445;SDS011;6795;51.232;3.764;2024-03-02T09:45:47;11.35;;;1.98;;
13445;SDS011;6795;51.232;3.764;2024-03-02T09:49:06;9.75;;;2.45;;
13445;SDS011;6795;51.232;3.764;2024-03-02T09:52:49;6.57;;;1.38;;
13445;SDS011;6795;51.232;3.764;2024-03-02T09:55:43;9.52;;;1.45;;
13445;SDS011;6795;51.232;3.764;2024-03-02T09:58:58;10.73;;;2.65;;
13445;SDS011;6795;51.232;3.764;2024-03-02T10:02:31;8.80;;;2.15;;
13445;SDS011;6795;51.232;3.764;2024-03-02T10:06:08;9.27;;;2.00;;
13445;SDS011;6795;51.232;3.764;2024-03-02T10:09:33;9.98;;;2.42;;
13445;SDS011;6795;51.232;3.764;2024-03-02T10:13:10;11.50;;;2.15;;
13445;SDS011;6795;51.232;3.764;2024-03-02T10:16:13;7.25;;;1.00;;
13445;SDS011;6795;51.232;3.764;2024-03-02T10:19:24;8.25;;;1.88;;
13445;SDS011;6795;51.232;3.764;2024-03-02T10:22:36;6.55;;;1.33;;
13445;SDS011;6795;51.232;3.764;2024-03-02T10:25:34;11.75;;;3.17;;
13445;SDS011;6795;51.232;3.764;2024-03-02T10:28:56;12.65;;;4.13;;
13445;SDS011;6795;51.232;3.764;2024-03-02T10:32:15;13.52;;;3.63;;
13445;SDS011;6795;51.232;3.764;2024-03-02T10:35:27;8.55;;;1.67;;
13445;SDS011;6795;51.232;3.764;2024-03-02T10:38:49;5.65;;;1.20;;
13445;SDS011;6795;51.232;3.764;2024-03-02T10:41:51;7.63;;;1.90;;
13445;SDS011;6795;51.232;3.764;2024-03-02T10:52:41;8.05;;;1.45;;
13445;SDS011;6795;51.232;3.764;2024-03-02T10:56:20;8.30;;;1.90;;
13445;SDS011;6795;51.232;3.764;2024-03-02T10:59:22;9.32;;;2.75;;
13445;SDS011;6795;51.232;3.764;2024-03-02T11:02:32;9.75;;;3.10;;
13445;SDS011;6795;51.232;3.764;2024-03-02T11:05:33;11.60;;;2.60;;
13445;SDS011;6795;51.232;3.764;2024-03-02T11:08:54;6.90;;;1.27;;
13445;SDS011;6795;51.232;3.764;2024-03-02T11:12:09;5.70;;;1.20;;
13445;SDS011;6795;51.232;3.764;2024-03-02T11:15:12;7.97;;;1.92;;
13445;SDS011;6795;51.232;3.764;2024-03-02T11:18:34;4.93;;;0.70;;
13445;SDS011;6795;51.232;3.764;2024-03-02T11:21:57;11.18;;;2.25;;
13445;SDS011;6795;51.232;3.764;2024-03-02T11:36:08;5.20;;;0.95;;
13445;SDS011;6795;51.232;3.764;2024-03-02T11:39:06;3.17;;;0.50;;
13445;SDS011;6795;51.232;3.764;2024-03-02T11:43:29;3.33;;;0.70;;
13445;SDS011;6795;51.232;3.764;2024-03-02T11:47:38;3.58;;;0.82;;
13445;SDS011;6795;51.232;3.764;2024-03-02T11:54:32;3.70;;;1.08;;
13445;SDS011;6795;51.232;3.764;2024-03-02T11:58:32;11.07;;;1.67;;
13445;SDS011;6795;51.232;3.764;2024-03-02T12:01:20;3.58;;;1.10;;
13445;SDS011;6795;51.232;3.764;2024-03-02T12:04:29;8.80;;;1.98;;
13445;SDS011;6795;51.232;3.764;2024-03-02T12:08:10;7.30;;;1.88;;
13445;SDS011;6795;51.232;3.764;2024-03-02T12:12:03;10.82;;;2.15;;
13445;SDS011;6795;51.232;3.764;2024-03-02T12:15:12;7.50;;;0.77;;
13445;SDS011;6795;51.232;3.764;2024-03-02T12:22:00;6.60;;;0.52;;
13445;SDS011;6795;51.232;3.764;2024-03-02T12:25:24;5.43;;;0.95;;
13445;SDS011;6795;51.232;3.764;2024-03-02T12:32:53;5.05;;;1.30;;
13445;SDS011;6795;51.232;3.764;2024-03-02T12:36:22;7.30;;;0.73;;
13445;SDS011;6795;51.232;3.764;2024-03-02T12:39:34;3.38;;;0.70;;
13445;SDS011;6795;51.232;3.764;2024-03-02T12:42:55;10.98;;;1.83;;
13445;SDS011;6795;51.232;3.764;2024-03-02T12:49:41;6.10;;;0.85;;
13445;SDS011;6795;51.232;3.764;2024-03-02T12:52:45;8.80;;;0.63;;
13445;SDS011;6795;51.232;3.764;2024-03-02T12:56:06;5.30;;;0.40;;
13445;SDS011;6795;51.232;3.764;2024-03-02T13:00:17;6.53;;;0.40;;
13445;SDS011;6795;51.232;3.764;2024-03-02T13:03:00;2.75;;;0.50;;
13445;SDS011;6795;51.232;3.764;2024-03-02T13:10:00;3.38;;;0.50;;
13445;SDS011;6795;51.232;3.764;2024-03-02T13:13:22;1.77;;;0.47;;
13445;SDS011;6795;51.232;3.764;2024-03-02T13:16:40;3.72;;;0.55;;
13445;SDS011;6795;51.232;3.764;2024-03-02T13:19:57;3.00;;;0.43;;
13445;SDS011;6795;51.232;3.764;2024-03-02T13:23:21;2.30;;;0.40;;
13445;SDS011;6795;51.232;3.764;2024-03-02T13:26:42;5.50;;;0.57;;
13445;SDS011;6795;51.232;3.764;2024-03-02T13:29:52;4.72;;;0.80;;
13445;SDS011;6795;51.232;3.764;2024-03-02T13:32:44;9.75;;;2.38;;
13445;SDS011;6795;51.232;3.764;2024-03-02T13:35:42;10.98;;;3.30;;
13445;SDS011;6795;51.232;3.764;2024-03-02T13:38:56;8.38;;;3.50;;
13445;SDS011;6795;51.232;3.764;2024-03-02T13:42:09;18.88;;;4.18;;
13445;SDS011;6795;51.232;3.764;2024-03-02T13:45:24;7.32;;;2.22;;
13445;SDS011;6795;51.232;3.764;2024-03-02T13:48:18;9.57;;;4.03;;
13445;SDS011;6795;51.232;3.764;2024-03-02T13:51:56;11.02;;;4.32;;
13445;SDS011;6795;51.232;3.764;2024-03-02T13:57:54;14.68;;;3.85;;
13445;SDS011;6795;51.232;3.764;2024-03-02T13:59:10;9.73;;;3.85;;
13445;SDS011;6795;51.232;3.764;2024-03-02T14:03:05;18.20;;;8.57;;
13445;SDS011;6795;51.232;3.764;2024-03-02T14:06:08;34.92;;;13.40;;
13445;SDS011;6795;51.232;3.764;2024-03-02T14:09:18;36.95;;;14.25;;
13445;SDS011;6795;51.232;3.764;2024-03-02T14:12:16;9.15;;;3.03;;
13445;SDS011;6795;51.232;3.764;2024-03-02T14:16:02;6.57;;;1.75;;
13445;SDS011;6795;51.232;3.764;2024-03-02T14:19:14;7.95;;;2.15;;
13445;SDS011;6795;51.232;3.764;2024-03-02T14:22:26;7.57;;;1.75;;
13445;SDS011;6795;51.232;3.764;2024-03-02T14:25:32;12.27;;;1.65;;
13445;SDS011;6795;51.232;3.764;2024-03-02T14:28:40;8.32;;;2.03;;
13445;SDS011;6795;51.232;3.764;2024-03-02T14:31:56;10.98;;;3.95;;
13445;SDS011;6795;51.232;3.764;2024-03-02T14:34:56;12.27;;;5.82;;
13445;SDS011;6795;51.232;3.764;2024-03-02T14:38:04;19.08;;;9.45;;
13445;SDS011;6795;51.232;3.764;2024-03-02T14:40:59;24.90;;;12.30;;
13445;SDS011;6795;51.232;3.764;2024-03-02T14:44:44;16.90;;;6.88;;
13445;SDS011;6795;51.232;3.764;2024-03-02T14:48:05;24.65;;;9.88;;
13445;SDS011;6795;51.232;3.764;2024-03-02T14:51:08;17.33;;;7.82;;
13445;SDS011;6795;51.232;3.764;2024-03-02T14:54:21;4.38;;;1.08;;
13445;SDS011;6795;51.232;3.764;2024-03-02T14:57:29;4.30;;;0.90;;
13445;SDS011;6795;51.232;3.764;2024-03-02T15:00:53;2.05;;;0.63;;
13445;SDS011;6795;51.232;3.764;2024-03-02T15:04:14;7.45;;;0.70;;
13445;SDS011;6795;51.232;3.764;2024-03-02T15:07:47;1.55;;;0.50;;
13445;SDS011;6795;51.232;3.764;2024-03-02T15:10:30;4.55;;;0.90;;
13445;SDS011;6795;51.232;3.764;2024-03-02T15:13:42;4.68;;;0.63;;
13445;SDS011;6795;51.232;3.764;2024-03-02T15:17:24;3.00;;;0.63;;
13445;SDS011;6795;51.232;3.764;2024-03-02T15:23:50;4.85;;;0.98;;
13445;SDS011;6795;51.232;3.764;2024-03-02T15:26:59;11.75;;;5.28;;
13445;SDS011;6795;51.232;3.764;2024-03-02T15:30:32;14.20;;;7.47;;
13445;SDS011;6795;51.232;3.764;2024-03-02T15:33:58;8.98;;;4.53;;
13445;SDS011;6795;51.232;3.764;2024-03-02T15:37:18;7.35;;;1.30;;
13445;SDS011;6795;51.232;3.764;2024-03-02T15:44:58;2.13;;;0.60;;
13445;SDS011;6795;51.232;3.764;2024-03-02T15:48:04;2.78;;;0.30;;
13445;SDS011;6795;51.232;3.764;2024-03-02T15:50:59;4.22;;;0.55;;
13445;SDS011;6795;51.232;3.764;2024-03-02T15:53:49;1.63;;;0.38;;
13445;SDS011;6795;51.232;3.764;2024-03-02T15:57:49;2.47;;;0.60;;
13445;SDS011;6795;51.232;3.764;2024-03-02T16:00:42;3.97;;;0.70;;
13445;SDS011;6795;51.232;3.764;2024-03-02T16:04:10;5.03;;;0.50;;
13445;SDS011;6795;51.232;3.764;2024-03-02T16:07:15;4.00;;;0.50;;
13445;SDS011;6795;51.232;3.764;2024-03-02T16:12:41;1.67;;;0.47;;
13445;SDS011;6795;51.232;3.764;2024-03-02T16:13:53;7.13;;;0.40;;
13445;SDS011;6795;51.232;3.764;2024-03-02T16:17:16;2.50;;;0.47;;
13445;SDS011;6795;51.232;3.764;2024-03-02T16:20:58;2.35;;;0.40;;
13445;SDS011;6795;51.232;3.764;2024-03-02T16:23:59;3.28;;;0.22;;
13445;SDS011;6795;51.232;3.764;2024-03-02T16:26:42;3.20;;;0.30;;
13445;SDS011;6795;51.232;3.764;2024-03-02T16:29:49;1.15;;;0.32;;
13445;SDS011;6795;51.232;3.764;2024-03-02T16:33:04;3.95;;;0.40;;
13445;SDS011;6795;51.232;3.764;2024-03-02T16:36:28;1.38;;;0.30;;
13445;SDS011;6795;51.232;3.764;2024-03-02T16:39:48;4.60;;;0.35;;
13445;SDS011;6795;51.232;3.764;2024-03-02T16:43:02;1.73;;;0.30;;
13445;SDS011;6795;51.232;3.764;2024-03-02T16:46:47;3.13;;;0.43;;
13445;SDS011;6795;51.232;3.764;2024-03-02T16:49:50;0.93;;;0.22;;
13445;SDS011;6795;51.232;3.764;2024-03-02T16:53:04;0.90;;;0.20;;
13445;SDS011;6795;51.232;3.764;2024-03-02T16:56:06;0.52;;;0.20;;
13445;SDS011;6795;51.232;3.764;2024-03-02T16:59:10;0.32;;;0.28;;
13445;SDS011;6795;51.232;3.764;2024-03-02T17:03:02;2.28;;;0.38;;
13445;SDS011;6795;51.232;3.764;2024-03-02T17:06:42;2.53;;;0.30;;
13445;SDS011;6795;51.232;3.764;2024-03-02T17:10:04;2.50;;;0.20;;
13445;SDS011;6795;51.232;3.764;2024-03-02T17:13:18;0.75;;;0.30;;
13445;SDS011;6795;51.232;3.764;2024-03-02T17:16:43;0.90;;;0.20;;
13445;SDS011;6795;51.232;3.764;2024-03-02T17:19:44;0.30;;;0.20;;
13445;SDS011;6795;51.232;3.764;2024-03-02T17:30:25;2.15;;;0.50;;
13445;SDS011;6795;51.232;3.764;2024-03-02T17:33:36;2.20;;;0.32;;
13445;SDS011;6795;51.232;3.764;2024-03-02T17:37:06;3.55;;;1.42;;
13445;SDS011;6795;51.232;3.764;2024-03-02T17:40:11;3.10;;;0.70;;
13445;SDS011;6795;51.232;3.764;2024-03-02T17:43:08;12.27;;;5.97;;
13445;SDS011;6795;51.232;3.764;2024-03-02T17:53:44;12.15;;;5.72;;
13445;SDS011;6795;51.232;3.764;2024-03-02T17:56:44;15.88;;;7.68;;
13445;SDS011;6795;51.232;3.764;2024-03-02T17:59:46;16.27;;;8.23;;
13445;SDS011;6795;51.232;3.764;2024-03-02T18:03:37;12.05;;;4.93;;
13445;SDS011;6795;51.232;3.764;2024-03-02T18:06:43;6.50;;;2.80;;
13445;SDS011;6795;51.232;3.764;2024-03-02T18:13:51;0.90;;;0.50;;
13445;SDS011;6795;51.232;3.764;2024-03-02T18:17:14;0.50;;;0.50;;
13445;SDS011;6795;51.232;3.764;2024-03-02T18:20:18;1.25;;;0.68;;
13445;SDS011;6795;51.232;3.764;2024-03-02T18:23:23;0.88;;;0.70;;
13445;SDS011;6795;51.232;3.764;2024-03-02T18:26:33;0.85;;;0.80;;
13445;SDS011;6795;51.232;3.764;2024-03-02T18:29:40;1.50;;;0.95;;
13445;SDS011;6795;51.232;3.764;2024-03-02T18:32:53;1.30;;;0.90;;
13445;SDS011;6795;51.232;3.764;2024-03-02T18:36:11;1.25;;;0.80;;
13445;SDS011;6795;51.232;3.764;2024-03-02T18:39:33;2.80;;;1.50;;
13445;SDS011;6795;51.232;3.764;2024-03-02T18:42:43;1.90;;;1.75;;
13445;SDS011;6795;51.232;3.764;2024-03-02T18:46:10;1.67;;;1.60;;
13445;SDS011;6795;51.232;3.764;2024-03-02T18:49:20;2.65;;;2.22;;
13445;SDS011;6795;51.232;3.764;2024-03-02T18:52:26;2.53;;;2.28;;
13445;SDS011;6795;51.232;3.764;2024-03-02T18:55:37;3.85;;;2.78;;
13445;SDS011;6795;51.232;3.764;2024-03-02T18:59:00;3.22;;;3.05;;
13445;SDS011;6795;51.232;3.764;2024-03-02T19:06:05;4.45;;;4.15;;
13445;SDS011;6795;51.232;3.764;2024-03-02T19:09:48;2.83;;;2.72;;
13445;SDS011;6795;51.232;3.764;2024-03-02T19:12:46;4.80;;;4.40;;
13445;SDS011;6795;51.232;3.764;2024-03-02T19:15:55;4.57;;;4.18;;
13445;SDS011;6795;51.232;3.764;2024-03-02T19:18:55;4.85;;;4.45;;
13445;SDS011;6795;51.232;3.764;2024-03-02T19:29:00;4.47;;;2.80;;
13445;SDS011;6795;51.232;3.764;2024-03-02T19:33:55;3.00;;;2.80;;
13445;SDS011;6795;51.232;3.764;2024-03-02T19:35:52;2.60;;;2.50;;
13445;SDS011;6795;51.232;3.764;2024-03-02T19:38:36;2.60;;;2.40;;
13445;SDS011;6795;51.232;3.764;2024-03-02T19:42:17;2.60;;;2.40;;
13445;SDS011;6795;51.232;3.764;2024-03-02T19:45:18;3.13;;;2.83;;
13445;SDS011;6795;51.232;3.764;2024-03-02T19:48:31;2.80;;;2.00;;
13445;SDS011;6795;51.232;3.764;2024-03-02T19:51:49;3.35;;;2.25;;
13445;SDS011;6795;51.232;3.764;2024-03-02T19:55:21;1.73;;;1.55;;
13445;SDS011;6795;51.232;3.764;2024-03-02T19:58:42;3.85;;;2.00;;
13445;SDS011;6795;51.232;3.764;2024-03-02T20:02:29;1.70;;;1.60;;
13445;SDS011;6795;51.232;3.764;2024-03-02T20:06:00;1.60;;;1.50;;
13445;SDS011;6795;51.232;3.764;2024-03-02T20:09:37;2.45;;;2.20;;
13445;SDS011;6795;51.232;3.764;2024-03-02T20:12:40;2.90;;;2.28;;
13445;SDS011;6795;51.232;3.764;2024-03-02T20:15:51;2.53;;;2.33;;
13445;SDS011;6795;51.232;3.764;2024-03-02T20:19:15;3.28;;;2.42;;
13445;SDS011;6795;51.232;3.764;2024-03-02T20:22:43;5.53;;;2.47;;
13445;SDS011;6795;51.232;3.764;2024-03-02T20:29:02;3.35;;;3.05;;
13445;SDS011;6795;51.232;3.764;2024-03-02T20:32:28;3.58;;;3.38;;
13445;SDS011;6795;51.232;3.764;2024-03-02T20:35:44;3.15;;;2.50;;
13445;SDS011;6795;51.232;3.764;2024-03-02T20:39:51;3.25;;;2.78;;
13445;SDS011;6795;51.232;3.764;2024-03-02T20:42:20;3.53;;;1.80;;
13445;SDS011;6795;51.232;3.764;2024-03-02T20:45:33;2.72;;;1.63;;
13445;SDS011;6795;51.232;3.764;2024-03-02T20:48:46;6.60;;;1.70;;
13445;SDS011;6795;51.232;3.764;2024-03-02T20:52:21;2.80;;;1.58;;
13445;SDS011;6795;51.232;3.764;2024-03-02T20:55:42;2.30;;;1.73;;
13445;SDS011;6795;51.232;3.764;2024-03-02T20:58:48;1.65;;;1.45;;
13445;SDS011;6795;51.232;3.764;2024-03-02T21:02:16;1.42;;;1.27;;
13445;SDS011;6795;51.232;3.764;2024-03-02T21:05:07;1.95;;;1.85;;
13445;SDS011;6795;51.232;3.764;2024-03-02T21:12:01;1.23;;;1.17;;
13445;SDS011;6795;51.232;3.764;2024-03-02T21:15:28;1.33;;;1.20;;
13445;SDS011;6795;51.232;3.764;2024-03-02T21:18:45;1.80;;;1.70;;
13445;SDS011;6795;51.232;3.764;2024-03-02T21:22:07;1.33;;;1.23;;
13445;SDS011;6795;51.232;3.764;2024-03-02T21:26:08;0.85;;;0.85;;
13445;SDS011;6795;51.232;3.764;2024-03-02T21:36:03;1.50;;;1.40;;
13445;SDS011;6795;51.232;3.764;2024-03-02T21:39:14;1.75;;;1.00;;
13445;SDS011;6795;51.232;3.764;2024-03-02T21:42:18;0.82;;;0.82;;
13445;SDS011;6795;51.232;3.764;2024-03-02T21:45:18;1.45;;;1.00;;
13445;SDS011;6795;51.232;3.764;2024-03-02T21:48:37;3.70;;;1.40;;
13445;SDS011;6795;51.232;3.764;2024-03-02T21:59:22;1.10;;;1.02;;
13445;SDS011;6795;51.232;3.764;2024-03-02T22:02:44;4.35;;;1.30;;
13445;SDS011;6795;51.232;3.764;2024-03-02T22:05:53;1.80;;;1.70;;
13445;SDS011;6795;51.232;3.764;2024-03-02T22:09:25;2.33;;;2.13;;
13445;SDS011;6795;51.232;3.764;2024-03-02T22:12:26;2.50;;;2.20;;
13445;SDS011;6795;51.232;3.764;2024-03-02T22:26:43;2.70;;;2.50;;
13445;SDS011;6795;51.232;3.764;2024-03-02T22:29:49;2.03;;;1.77;;
13445;SDS011;6795;51.232;3.764;2024-03-02T22:33:06;2.15;;;1.95;;
13445;SDS011;6795;51.232;3.764;2024-03-02T22:36:02;3.42;;;1.85;;
13445;SDS011;6795;51.232;3.764;2024-03-02T22:39:24;3.17;;;2.30;;
13445;SDS011;6795;51.232;3.764;2024-03-02T22:52:51;1.98;;;1.70;;
13445;SDS011;6795;51.232;3.764;2024-03-02T22:56:05;1.98;;;1.88;;
13445;SDS011;6795;51.232;3.764;2024-03-02T22:58:58;2.13;;;1.83;;
13445;SDS011;6795;51.232;3.764;2024-03-02T23:02:08;2.60;;;2.40;;
13445;SDS011;6795;51.232;3.764;2024-03-02T23:05:07;3.47;;;2.90;;
13445;SDS011;6795;51.232;3.764;2024-03-02T23:08:53;2.97;;;2.78;;
13445;SDS011;6795;51.232;3.764;2024-03-02T23:11:56;5.25;;;4.38;;
13445;SDS011;6795;51.232;3.764;2024-03-02T23:15:12;6.22;;;4.68;;
13445;SDS011;6795;51.232;3.764;2024-03-02T23:18:26;11.93;;;6.78;;
13445;SDS011;6795;51.232;3.764;2024-03-02T23:21:37;12.82;;;8.70;;
13445;SDS011;6795;51.232;3.764;2024-03-02T23:29:07;15.15;;;9.07;;
13445;SDS011;6795;51.232;3.764;2024-03-02T23:32:59;15.88;;;10.40;;
13445;SDS011;6795;51.232;3.764;2024-03-02T23:36:04;14.95;;;11.38;;
13445;SDS011;6795;51.232;3.764;2024-03-02T23:39:35;16.08;;;12.13;;
13445;SDS011;6795;51.232;3.764;2024-03-02T23:42:34;15.45;;;12.55;;
13445;SDS011;6795;51.232;3.764;2024-03-02T23:53:12;20.05;;;16.30;;
